createdAt,value
2023-03-06T00:00:33.882Z,101032.66
2023-03-06T00:03:00.604Z,101029.06
2023-03-06T00:05:27.792Z,101022.84
2023-03-06T00:07:54.419Z,101030.69
2023-03-06T00:10:27.133Z,101016.91
2023-03-06T00:12:55.643Z,101018.91
2023-03-06T00:15:22.317Z,101012.88
2023-03-06T00:17:48.691Z,101011.22
2023-03-06T00:20:17.305Z,101011.22
2023-03-06T00:22:43.626Z,101010.63
2023-03-06T00:25:15.830Z,101009.88
2023-03-06T00:27:42.418Z,101009.78
2023-03-06T00:30:12.907Z,100996.44
2023-03-06T00:32:39.284Z,100996.53
2023-03-06T00:35:08.450Z,100991.34
2023-03-06T00:37:34.815Z,100986.09
2023-03-06T00:40:01.354Z,100981.03
2023-03-06T00:42:34.385Z,100984.38
2023-03-06T00:45:05.785Z,100982.94
2023-03-06T00:47:32.572Z,100976.91
2023-03-06T00:49:58.865Z,100973.81
2023-03-06T00:52:27.636Z,100959.50
2023-03-06T00:54:54.194Z,100955.19
2023-03-06T00:57:22.682Z,100954.84
2023-03-06T00:59:49.014Z,100956.56
2023-03-06T01:02:20.291Z,100957.34
2023-03-06T01:04:47.111Z,100949.34
2023-03-06T01:07:18.331Z,100959.78
2023-03-06T01:09:44.625Z,100952.28
2023-03-06T01:12:10.976Z,100938.16
2023-03-06T01:14:37.508Z,100932.16
2023-03-06T01:17:07.390Z,100929.88
2023-03-06T01:19:33.666Z,100921.28
2023-03-06T01:21:59.983Z,100929.88
2023-03-06T01:24:28.486Z,100922.16
2023-03-06T01:26:54.893Z,100922.84
2023-03-06T01:29:21.246Z,100924.50
2023-03-06T01:31:47.762Z,100927.06
2023-03-06T01:34:14.250Z,100918.28
2023-03-06T01:36:40.600Z,100922.75
2023-03-06T01:39:06.909Z,100920.34
2023-03-06T01:41:33.254Z,100925.00
2023-03-06T01:44:02.720Z,100924.03
2023-03-06T01:46:35.928Z,100918.63
2023-03-06T01:49:08.255Z,100919.22
2023-03-06T01:51:48.955Z,100923.13
2023-03-06T01:54:26.969Z,100919.75
2023-03-06T01:56:58.484Z,100917.94
2023-03-06T01:59:30.274Z,100912.00
2023-03-06T02:01:59.246Z,100919.59
2023-03-06T02:04:25.654Z,100908.91
2023-03-06T02:06:52.210Z,100913.66
2023-03-06T02:09:18.662Z,100901.88
2023-03-06T02:11:45.033Z,100895.41
2023-03-06T02:14:14.735Z,100899.31
2023-03-06T02:16:49.458Z,100895.84
2023-03-06T02:19:50.170Z,100893.78
2023-03-06T02:22:18.942Z,100895.16
2023-03-06T02:25:36.072Z,100897.75
2023-03-06T02:28:03.216Z,100889.75
2023-03-06T02:30:30.078Z,100889.94
2023-03-06T02:32:57.134Z,100885.97
2023-03-06T02:35:32.014Z,100883.56
2023-03-06T02:38:05.878Z,100886.28
2023-03-06T02:40:32.255Z,100884.75
2023-03-06T02:43:01.188Z,100881.91
2023-03-06T02:45:38.509Z,100883.47
2023-03-06T02:48:08.403Z,100879.34
2023-03-06T02:50:36.228Z,100876.78
2023-03-06T02:53:03.835Z,100863.44
2023-03-06T02:55:30.232Z,100855.88
2023-03-06T02:57:56.619Z,100851.56
2023-03-06T03:00:23.236Z,100848.38
2023-03-06T03:02:52.239Z,100841.31
2023-03-06T03:05:18.549Z,100844.09
2023-03-06T03:07:45.038Z,100834.94
2023-03-06T03:10:12.374Z,100829.44
2023-03-06T03:12:40.568Z,100837.00
2023-03-06T03:15:07.883Z,100824.25
2023-03-06T03:17:42.256Z,100822.69
2023-03-06T03:20:12.496Z,100820.47
2023-03-06T03:22:39.006Z,100811.69
2023-03-06T03:25:07.107Z,100811.50
2023-03-06T03:27:33.744Z,100814.75
2023-03-06T03:30:00.722Z,100807.91
2023-03-06T03:32:27.251Z,100802.28
2023-03-06T03:34:57.369Z,100800.84
2023-03-06T03:37:26.533Z,100798.94
2023-03-06T03:39:52.905Z,100797.28
2023-03-06T03:42:20.563Z,100794.47
2023-03-06T03:44:49.797Z,100797.03
2023-03-06T03:47:20.523Z,100788.94
2023-03-06T03:49:46.851Z,100797.88
2023-03-06T03:52:13.219Z,100786.97
2023-03-06T03:54:39.605Z,100785.66
2023-03-06T03:57:06.055Z,100785.06
2023-03-06T03:59:32.417Z,100784.28
2023-03-06T04:02:01.826Z,100788.41
2023-03-06T04:04:28.245Z,100779.25
2023-03-06T04:06:54.626Z,100775.47
2023-03-06T04:09:21.017Z,100777.25
2023-03-06T04:11:47.318Z,100765.91
2023-03-06T04:14:13.697Z,100779.81
2023-03-06T04:16:40.110Z,100772.69
2023-03-06T04:19:09.235Z,100774.34
2023-03-06T04:21:35.611Z,100763.66
2023-03-06T04:24:02.030Z,100762.00
2023-03-06T04:26:28.400Z,100757.66
2023-03-06T04:28:57.573Z,100765.34
2023-03-06T04:31:23.944Z,100761.47
2023-03-06T04:33:50.287Z,100753.03
2023-03-06T04:36:29.177Z,100754.69
2023-03-06T04:38:56.129Z,100750.88
2023-03-06T04:41:23.381Z,100748.66
2023-03-06T04:43:50.406Z,100750.38
2023-03-06T04:46:17.157Z,100752.38
2023-03-06T04:48:44.106Z,100754.97
2023-03-06T04:51:12.822Z,100748.47
2023-03-06T04:53:41.632Z,100740.88
2023-03-06T04:56:08.370Z,100746.09
2023-03-06T04:58:34.758Z,100742.22
2023-03-06T05:01:01.123Z,100741.81
2023-03-06T05:03:31.188Z,100736.00
2023-03-06T05:05:58.231Z,100736.09
2023-03-06T05:08:25.638Z,100739.53
2023-03-06T05:11:02.247Z,100736.13
2023-03-06T05:13:30.115Z,100739.91
2023-03-06T05:16:02.147Z,100746.22
2023-03-06T05:18:28.429Z,100734.09
2023-03-06T05:20:54.732Z,100732.69
2023-03-06T05:23:23.395Z,100737.44
2023-03-06T05:25:51.835Z,100732.09
2023-03-06T05:28:18.231Z,100735.44
2023-03-06T05:30:44.736Z,100736.88
2023-03-06T05:33:11.108Z,100735.53
2023-03-06T05:35:39.886Z,100731.94
2023-03-06T05:38:06.278Z,100723.72
2023-03-06T05:40:32.700Z,100727.16
2023-03-06T05:42:59.142Z,100716.63
2023-03-06T05:45:25.527Z,100714.94
2023-03-06T05:47:51.982Z,100719.91
2023-03-06T05:50:20.410Z,100711.25
2023-03-06T05:52:46.795Z,100712.53
2023-03-06T05:55:15.673Z,100715.97
2023-03-06T05:57:42.244Z,100709.88
2023-03-06T06:00:12.454Z,100718.28
2023-03-06T06:02:38.967Z,100712.47
2023-03-06T06:05:07.367Z,100712.06
2023-03-06T06:07:34.000Z,100710.06
2023-03-06T06:10:02.389Z,100713.41
2023-03-06T06:12:33.952Z,100720.69
2023-03-06T06:15:01.561Z,100726.84
2023-03-06T06:17:28.931Z,100712.66
2023-03-06T06:19:57.689Z,100724.28
2023-03-06T06:22:24.737Z,100729.53
2023-03-06T06:24:54.272Z,100730.09
2023-03-06T06:27:22.183Z,100726.59
2023-03-06T06:29:52.280Z,100725.41
2023-03-06T06:32:22.239Z,100728.00
2023-03-06T06:34:48.850Z,100731.34
2023-03-06T06:37:23.124Z,100732.00
2023-03-06T06:39:52.312Z,100734.09
2023-03-06T06:42:31.415Z,100730.47
2023-03-06T06:45:02.526Z,100732.56
2023-03-06T06:47:32.090Z,100727.97
2023-03-06T06:49:58.455Z,100719.56
2023-03-06T06:52:25.087Z,100728.22
2023-03-06T06:54:56.016Z,100722.88
2023-03-06T06:57:22.501Z,100732.03
2023-03-06T06:59:50.128Z,100732.56
2023-03-06T07:02:17.842Z,100734.88
2023-03-06T07:05:01.956Z,100735.22
2023-03-06T07:07:35.251Z,100737.69
2023-03-06T07:10:04.586Z,100740.53
2023-03-06T07:12:33.321Z,100738.78
2023-03-06T07:14:59.642Z,100738.03
2023-03-06T07:17:28.860Z,100744.97
2023-03-06T07:19:55.191Z,100740.00
2023-03-06T07:22:23.990Z,100752.22
2023-03-06T07:24:52.684Z,100742.84
2023-03-06T07:27:19.029Z,100752.06
2023-03-06T07:29:47.830Z,100749.06
2023-03-06T07:32:15.665Z,100759.44
2023-03-06T07:34:42.039Z,100747.19
2023-03-06T07:37:11.250Z,100753.63
2023-03-06T07:39:39.762Z,100750.72
2023-03-06T07:42:08.247Z,100743.38
2023-03-06T07:44:40.845Z,100745.19
2023-03-06T07:47:09.509Z,100746.16
2023-03-06T07:49:35.917Z,100737.19
2023-03-06T07:52:02.386Z,100739.44
2023-03-06T07:54:31.248Z,100738.47
2023-03-06T07:56:57.631Z,100732.69
2023-03-06T07:59:24.157Z,100742.06
2023-03-06T08:01:51.124Z,100736.91
2023-03-06T08:04:21.107Z,100746.50
2023-03-06T08:06:48.008Z,100741.63
2023-03-06T08:09:17.498Z,100741.94
2023-03-06T08:11:44.916Z,100743.72
2023-03-06T08:14:12.138Z,100742.72
2023-03-06T08:16:45.268Z,100748.34
2023-03-06T08:19:11.746Z,100750.28
2023-03-06T08:21:38.534Z,100739.09
2023-03-06T08:24:08.647Z,100748.28
2023-03-06T08:26:36.655Z,100737.81
2023-03-06T08:29:06.497Z,100746.47
2023-03-06T08:31:39.235Z,100743.06
2023-03-06T08:34:09.926Z,100744.31
2023-03-06T08:36:36.622Z,100748.28
2023-03-06T08:39:06.891Z,100744.03
2023-03-06T08:41:34.591Z,100744.34
2023-03-06T08:44:02.033Z,100744.16
2023-03-06T08:46:32.782Z,100746.50
2023-03-06T08:49:00.707Z,100749.56
2023-03-06T08:51:29.454Z,100737.16
2023-03-06T08:54:04.942Z,100738.47
2023-03-06T08:56:35.166Z,100739.94
2023-03-06T08:59:03.879Z,100733.81
2023-03-06T09:01:38.672Z,100726.56
2023-03-06T09:04:10.561Z,100733.34
2023-03-06T09:06:39.836Z,100735.47
2023-03-06T09:09:11.465Z,100738.44
2023-03-06T09:11:38.784Z,100734.09
2023-03-06T09:14:05.787Z,100734.22
2023-03-06T09:16:32.602Z,100735.97
2023-03-06T09:18:59.007Z,100740.94
2023-03-06T09:21:30.058Z,100731.22
2023-03-06T09:23:56.768Z,100739.66
2023-03-06T09:26:39.679Z,100728.88
2023-03-06T09:29:11.302Z,100724.75
2023-03-06T09:31:40.059Z,100729.66
2023-03-06T09:34:06.550Z,100725.47
2023-03-06T09:36:42.760Z,100721.63
2023-03-06T09:39:15.812Z,100725.69
2023-03-06T09:41:42.220Z,100726.47
2023-03-06T09:44:39.626Z,100731.63
2023-03-06T09:47:40.547Z,100721.50
2023-03-06T09:50:13.217Z,100728.03
2023-03-06T09:53:01.605Z,100720.75
2023-03-06T09:55:38.334Z,100718.16
2023-03-06T09:58:18.841Z,100725.44
2023-03-06T10:00:57.454Z,100721.97
2023-03-06T10:03:48.110Z,100723.31
2023-03-06T10:06:39.206Z,100724.84
2023-03-06T10:09:14.732Z,100733.47
2023-03-06T10:11:57.088Z,100727.84
2023-03-06T10:14:39.214Z,100725.88
2023-03-06T10:17:10.742Z,100722.09
2023-03-06T10:19:46.312Z,100722.50
2023-03-06T10:22:24.428Z,100721.34
2023-03-06T10:24:57.402Z,100722.63
2023-03-06T10:27:44.690Z,100720.19
2023-03-06T10:30:35.893Z,100715.50
2023-03-06T10:33:12.306Z,100716.50
2023-03-06T10:35:49.273Z,100713.19
2023-03-06T10:38:19.259Z,100716.72
2023-03-06T10:40:58.398Z,100718.81
2023-03-06T10:43:27.629Z,100715.16
2023-03-06T10:45:53.951Z,100716.81
2023-03-06T10:48:31.762Z,100715.38
2023-03-06T10:51:24.941Z,100705.03
2023-03-06T10:54:17.563Z,100704.22
2023-03-06T10:56:46.435Z,100698.38
2023-03-06T10:59:24.816Z,100696.38
2023-03-06T11:02:13.494Z,100702.13
2023-03-06T11:04:41.325Z,100705.66
2023-03-06T11:07:54.736Z,100701.34
2023-03-06T11:10:21.183Z,100700.09
2023-03-06T11:13:05.295Z,100694.81
2023-03-06T11:15:32.976Z,100695.44
2023-03-06T11:18:27.149Z,100691.16
2023-03-06T11:20:54.981Z,100684.38
2023-03-06T11:23:40.012Z,100686.13
2023-03-06T11:26:15.517Z,100689.94
2023-03-06T11:29:06.744Z,100692.75
2023-03-06T11:31:47.929Z,100680.00
2023-03-06T11:34:18.754Z,100678.19
2023-03-06T11:36:54.860Z,100668.97
2023-03-06T11:39:35.606Z,100667.84
2023-03-06T11:42:23.932Z,100663.47
2023-03-06T11:45:15.125Z,100656.56
2023-03-06T11:47:45.837Z,100667.03
2023-03-06T11:51:06.385Z,100654.84
2023-03-06T11:53:39.307Z,100665.59
2023-03-06T11:56:20.651Z,100668.00
2023-03-06T11:59:07.505Z,100661.75
2023-03-06T12:02:01.643Z,100663.84
2023-03-06T12:04:44.942Z,100670.59
2023-03-06T12:07:34.737Z,100657.75
2023-03-06T12:10:19.908Z,100648.03
2023-03-06T12:13:15.208Z,100649.84
2023-03-06T12:15:45.464Z,100650.59
2023-03-06T12:18:30.654Z,100650.59
2023-03-06T12:21:28.839Z,100650.69
2023-03-06T12:24:04.439Z,100654.22
2023-03-06T12:26:33.763Z,100650.28
2023-03-06T12:29:34.712Z,100639.88
2023-03-06T12:32:24.714Z,100639.28
2023-03-06T12:35:06.432Z,100640.44
2023-03-06T12:38:11.859Z,100642.25
2023-03-06T12:41:04.301Z,100638.59
2023-03-06T12:44:01.976Z,100621.84
2023-03-06T12:46:28.533Z,100632.63
2023-03-06T12:49:03.210Z,100627.63
2023-03-06T12:51:35.383Z,100626.16
2023-03-06T12:54:05.809Z,100622.41
2023-03-06T12:56:34.541Z,100621.44
2023-03-06T12:59:01.503Z,100615.03
2023-03-06T13:01:48.871Z,100614.22
2023-03-06T13:04:45.751Z,100606.88
2023-03-06T13:07:24.788Z,100601.56
2023-03-06T13:10:09.255Z,100590.00
2023-03-06T13:12:55.721Z,100582.47
2023-03-06T13:15:36.162Z,100579.19
2023-03-06T13:18:22.500Z,100583.47
2023-03-06T13:20:49.516Z,100574.88
2023-03-06T13:23:52.380Z,100573.88
2023-03-06T13:26:24.771Z,100571.34
2023-03-06T13:28:55.379Z,100574.09
2023-03-06T13:31:28.348Z,100569.84
2023-03-06T13:34:03.628Z,100568.72
2023-03-06T13:36:36.701Z,100560.31
2023-03-06T13:39:11.970Z,100554.38
2023-03-06T13:41:53.416Z,100547.16
2023-03-06T13:44:25.881Z,100544.09
2023-03-06T13:47:07.293Z,100544.88
2023-03-06T13:49:35.289Z,100541.88
2023-03-06T13:52:13.034Z,100531.47
2023-03-06T13:54:57.594Z,100533.88
2023-03-06T13:57:37.905Z,100527.84
2023-03-06T14:00:25.746Z,100530.03
2023-03-06T14:03:10.398Z,100523.91
2023-03-06T14:05:45.059Z,100523.28
2023-03-06T14:08:31.481Z,100522.78
2023-03-06T14:11:02.540Z,100513.91
2023-03-06T14:13:46.571Z,100509.75
2023-03-06T14:16:20.126Z,100513.81
2023-03-06T14:18:49.916Z,100515.91
2023-03-06T14:21:27.704Z,100505.69
2023-03-06T14:24:00.558Z,100501.75
2023-03-06T14:26:32.384Z,100508.91
2023-03-06T14:29:00.476Z,100488.97
2023-03-06T14:31:31.020Z,100488.53
2023-03-06T14:34:03.237Z,100487.63
2023-03-06T14:36:45.683Z,100486.91
2023-03-06T14:39:15.316Z,100489.00
2023-03-06T14:41:41.701Z,100487.47
2023-03-06T14:44:24.925Z,100476.75
2023-03-06T14:46:56.984Z,100474.72
2023-03-06T14:49:25.144Z,100473.72
2023-03-06T14:51:57.811Z,100473.72
2023-03-06T14:54:37.036Z,100467.94
2023-03-06T14:57:13.969Z,100467.75
2023-03-06T14:59:55.996Z,100460.22
2023-03-06T15:02:26.332Z,100455.44
2023-03-06T15:04:57.279Z,100461.66
2023-03-06T15:07:29.064Z,100456.13
2023-03-06T15:09:59.198Z,100472.69
2023-03-06T15:12:28.354Z,100463.06
2023-03-06T15:15:08.556Z,100440.53
2023-03-06T15:17:43.708Z,100442.59
2023-03-06T15:20:37.985Z,100448.16
2023-03-06T15:23:17.822Z,100433.47
2023-03-06T15:25:54.325Z,100434.66
2023-03-06T15:28:30.172Z,100438.38
2023-03-06T15:31:20.356Z,100437.72
2023-03-06T15:34:08.681Z,100434.28
2023-03-06T15:36:41.133Z,100429.91
2023-03-06T15:39:32.087Z,100429.16
2023-03-06T15:41:59.186Z,100433.44
2023-03-06T15:44:25.937Z,100429.28
2023-03-06T15:46:59.265Z,100427.19
2023-03-06T15:49:32.938Z,100418.00
2023-03-06T15:51:59.312Z,100420.03
2023-03-06T15:54:25.632Z,100413.84
2023-03-06T15:56:53.243Z,100398.56
2023-03-06T15:59:24.026Z,100411.13
2023-03-06T16:01:51.898Z,100415.53
2023-03-06T16:04:19.085Z,100419.22
2023-03-06T16:06:45.922Z,100419.97
2023-03-06T16:09:15.792Z,100414.38
2023-03-06T16:11:44.209Z,100413.16
2023-03-06T16:14:18.604Z,100414.63
2023-03-06T16:16:44.973Z,100406.81
2023-03-06T16:19:26.078Z,100405.69
2023-03-06T16:21:54.270Z,100403.03
2023-03-06T16:24:20.610Z,100398.03
2023-03-06T16:26:49.445Z,100393.97
2023-03-06T16:29:18.005Z,100402.81
2023-03-06T16:31:44.663Z,100396.13
2023-03-06T16:34:14.436Z,100393.72
2023-03-06T16:36:41.563Z,100395.88
2023-03-06T16:39:13.527Z,100390.16
2023-03-06T16:41:42.235Z,100388.34
2023-03-06T16:44:08.940Z,100377.94
2023-03-06T16:46:39.078Z,100389.91
2023-03-06T16:49:06.096Z,100381.56
2023-03-06T16:51:32.433Z,100376.72
2023-03-06T16:54:01.053Z,100380.84
2023-03-06T16:56:29.780Z,100372.59
2023-03-06T16:58:56.133Z,100372.22
2023-03-06T17:01:22.652Z,100366.78
2023-03-06T17:03:49.197Z,100372.59
2023-03-06T17:06:17.916Z,100370.16
2023-03-06T17:08:45.255Z,100372.09
2023-03-06T17:11:12.837Z,100365.34
2023-03-06T17:13:42.214Z,100354.28
2023-03-06T17:16:12.383Z,100351.22
2023-03-06T17:18:43.147Z,100350.72
2023-03-06T17:21:09.670Z,100337.06
2023-03-06T17:23:37.369Z,100345.97
2023-03-06T17:26:17.689Z,100333.91
2023-03-06T17:28:45.472Z,100334.97
2023-03-06T17:31:34.954Z,100323.19
2023-03-06T17:34:03.109Z,100332.06
2023-03-06T17:36:31.216Z,100327.31
2023-03-06T17:38:59.658Z,100330.09
2023-03-06T17:41:28.988Z,100324.44
2023-03-06T17:43:56.229Z,100319.91
2023-03-06T17:46:24.266Z,100321.88
2023-03-06T17:48:50.692Z,100313.72
2023-03-06T17:51:21.214Z,100310.34
2023-03-06T17:53:47.818Z,100309.84
2023-03-06T17:56:16.579Z,100315.81
2023-03-06T17:58:45.438Z,100300.94
2023-03-06T18:01:17.726Z,100310.84
2023-03-06T18:03:46.576Z,100315.72
2023-03-06T18:06:13.477Z,100302.81
2023-03-06T18:08:43.032Z,100304.78
2023-03-06T18:11:11.225Z,100302.06
2023-03-06T18:13:42.564Z,100312.53
2023-03-06T18:16:11.307Z,100301.69
2023-03-06T18:18:40.690Z,100305.34
2023-03-06T18:21:11.818Z,100304.88
2023-03-06T18:23:45.481Z,100281.69
2023-03-06T18:26:33.227Z,100295.19
2023-03-06T18:29:04.032Z,100293.78
2023-03-06T18:31:34.265Z,100293.91
2023-03-06T18:34:28.994Z,100287.38
2023-03-06T18:36:55.578Z,100283.81
2023-03-06T18:39:28.037Z,100265.91
2023-03-06T18:41:54.394Z,100262.91
2023-03-06T18:44:21.075Z,100270.13
2023-03-06T18:46:47.672Z,100265.81
2023-03-06T18:49:14.366Z,100256.75
2023-03-06T18:51:40.810Z,100251.88
2023-03-06T18:54:08.699Z,100245.78
2023-03-06T18:56:36.217Z,100251.13
2023-03-06T18:59:04.848Z,100239.94
2023-03-06T19:01:33.429Z,100246.84
2023-03-06T19:04:05.180Z,100242.34
2023-03-06T19:06:31.892Z,100231.34
2023-03-06T19:09:02.882Z,100229.88
2023-03-06T19:11:34.250Z,100225.50
2023-03-06T19:14:01.173Z,100219.41
2023-03-06T19:16:29.351Z,100211.78
2023-03-06T19:19:01.195Z,100220.50
2023-03-06T19:21:28.257Z,100213.47
2023-03-06T19:23:57.818Z,100210.16
2023-03-06T19:26:28.892Z,100206.34
2023-03-06T19:28:55.721Z,100202.81
2023-03-06T19:31:28.686Z,100200.59
2023-03-06T19:34:00.925Z,100194.63
2023-03-06T19:36:28.836Z,100184.91
2023-03-06T19:38:59.636Z,100186.81
2023-03-06T19:41:26.292Z,100187.44
2023-03-06T19:43:59.797Z,100182.47
2023-03-06T19:46:27.039Z,100182.22
2023-03-06T19:48:58.677Z,100179.31
2023-03-06T19:51:28.316Z,100163.16
2023-03-06T19:53:56.682Z,100162.44
2023-03-06T19:56:25.675Z,100158.53
2023-03-06T19:58:52.930Z,100149.22
2023-03-06T20:01:26.074Z,100147.41
2023-03-06T20:03:57.268Z,100141.34
2023-03-06T20:06:24.776Z,100141.19
2023-03-06T20:08:51.354Z,100129.00
2023-03-06T20:11:23.015Z,100128.56
2023-03-06T20:13:50.032Z,100113.38
2023-03-06T20:16:28.072Z,100115.09
2023-03-06T20:18:56.844Z,100099.41
2023-03-06T20:21:23.586Z,100107.69
2023-03-06T20:23:54.147Z,100100.41
2023-03-06T20:26:20.762Z,100090.31
2023-03-06T20:28:51.959Z,100087.88
2023-03-06T20:31:20.602Z,100074.63
2023-03-06T20:33:50.554Z,100086.69
2023-03-06T20:36:24.092Z,100076.72
2023-03-06T20:38:50.514Z,100062.13
2023-03-06T20:41:25.390Z,100062.97
2023-03-06T20:43:52.655Z,100061.53
2023-03-06T20:46:23.408Z,100063.81
2023-03-06T20:48:52.152Z,100050.34
2023-03-06T20:51:22.906Z,100042.31
2023-03-06T20:53:51.068Z,100041.19
2023-03-06T20:56:20.301Z,100040.34
2023-03-06T20:58:47.124Z,100040.94
2023-03-06T21:01:28.308Z,100026.88
2023-03-06T21:03:55.624Z,100029.41
2023-03-06T21:06:22.868Z,100026.34
2023-03-06T21:08:56.093Z,100024.66
2023-03-06T21:11:22.409Z,100017.34
2023-03-06T21:13:50.058Z,100012.59
2023-03-06T21:16:20.132Z,100024.03
2023-03-06T21:18:47.061Z,100019.38
2023-03-06T21:21:19.092Z,100018.16
2023-03-06T21:23:46.740Z,100010.78
2023-03-06T21:26:16.475Z,100007.38
2023-03-06T21:28:43.709Z,99996.53
2023-03-06T21:31:14.753Z,99995.28
2023-03-06T21:33:44.139Z,99987.25
2023-03-06T21:36:10.586Z,99977.13
2023-03-06T21:38:39.830Z,99977.13
2023-03-06T21:41:18.467Z,99982.22
2023-03-06T21:43:47.307Z,99986.22
2023-03-06T21:46:13.842Z,99979.25
2023-03-06T21:48:42.469Z,99970.88
2023-03-06T21:51:17.300Z,99976.31
2023-03-06T21:53:44.683Z,99977.38
2023-03-06T21:56:12.229Z,99975.03
2023-03-06T21:58:38.614Z,99978.91
2023-03-06T22:01:09.912Z,99975.00
2023-03-06T22:03:41.079Z,99971.91
2023-03-06T22:06:12.771Z,99981.78
2023-03-06T22:08:50.883Z,99969.69
2023-03-06T22:11:20.903Z,99966.16
2023-03-06T22:13:48.273Z,99975.91
2023-03-06T22:16:15.054Z,99968.84
2023-03-06T22:18:49.358Z,99959.56
2023-03-06T22:21:23.670Z,99952.97
2023-03-06T22:23:51.742Z,99953.94
2023-03-06T22:26:23.040Z,99960.56
2023-03-06T22:28:53.107Z,99950.19
2023-03-06T22:31:23.365Z,99948.38
2023-03-06T22:33:51.617Z,99952.50
2023-03-06T22:36:18.378Z,99949.09
2023-03-06T22:38:46.632Z,99953.00
2023-03-06T22:41:15.405Z,99946.69
2023-03-06T22:43:42.443Z,99947.38
2023-03-06T22:46:11.502Z,99938.06
2023-03-06T22:48:37.904Z,99925.44
2023-03-06T22:51:06.546Z,99938.69
2023-03-06T22:53:33.808Z,99941.09
2023-03-06T22:56:02.160Z,99939.97
2023-03-06T22:58:29.960Z,99933.41
2023-03-06T23:00:58.099Z,99943.88
2023-03-06T23:03:26.709Z,99932.28
2023-03-06T23:05:55.983Z,99934.38
2023-03-06T23:08:22.360Z,99933.19
2023-03-06T23:10:48.732Z,99932.69
2023-03-06T23:13:17.553Z,99937.19
2023-03-06T23:15:43.952Z,99944.06
2023-03-06T23:18:12.810Z,99934.00
2023-03-06T23:20:44.209Z,99934.34
2023-03-06T23:23:17.505Z,99937.84
2023-03-06T23:25:47.885Z,99932.25
2023-03-06T23:28:16.894Z,99923.22
2023-03-06T23:30:43.848Z,99922.13
2023-03-06T23:33:13.221Z,99922.44
2023-03-06T23:35:39.591Z,99924.97
2023-03-06T23:38:08.965Z,99933.75
2023-03-06T23:40:37.146Z,99926.88
2023-03-06T23:43:03.579Z,99919.34
2023-03-06T23:45:33.410Z,99921.75
2023-03-06T23:47:59.757Z,99928.69
2023-03-06T23:50:31.491Z,99925.56
2023-03-06T23:52:59.133Z,99924.84
2023-03-06T23:55:26.649Z,99929.94
2023-03-06T23:57:53.011Z,99927.13
